sensor_id;sensor_type;location;lat;lon;timestamp;P1;durP1;ratioP1;P2;durP2;ratioP2
20069;SDS011;10195;50.868;4.382;2022-09-01T00:01:43;8.60;;;3.55;;
20069;SDS011;10195;50.868;4.382;2022-09-01T00:04:13;7.68;;;3.90;;
20069;SDS011;10195;50.868;4.382;2022-09-01T00:06:41;10.45;;;3.65;;
20069;SDS011;10195;50.868;4.382;2022-09-01T00:09:08;9.60;;;3.53;;
20069;SDS011;10195;50.868;4.382;2022-09-01T00:11:36;9.02;;;3.53;;
20069;SDS011;10195;50.868;4.382;2022-09-01T00:14:04;6.72;;;3.38;;
20069;SDS011;10195;50.868;4.382;2022-09-01T00:16:31;10.60;;;4.10;;
20069;SDS011;10195;50.868;4.382;2022-09-01T00:18:57;7.00;;;3.58;;
20069;SDS011;10195;50.868;4.382;2022-09-01T00:21:25;8.98;;;3.78;;
20069;SDS011;10195;50.868;4.382;2022-09-01T00:23:53;10.07;;;3.85;;
20069;SDS011;10195;50.868;4.382;2022-09-01T00:26:18;7.45;;;4.07;;
20069;SDS011;10195;50.868;4.382;2022-09-01T00:28:44;15.63;;;3.88;;
20069;SDS011;10195;50.868;4.382;2022-09-01T00:31:10;6.60;;;3.20;;
20069;SDS011;10195;50.868;4.382;2022-09-01T00:33:36;12.82;;;3.65;;
20069;SDS011;10195;50.868;4.382;2022-09-01T00:36:03;14.75;;;3.97;;
20069;SDS011;10195;50.868;4.382;2022-09-01T00:38:30;8.63;;;3.75;;
20069;SDS011;10195;50.868;4.382;2022-09-01T00:40:56;8.88;;;3.97;;
20069;SDS011;10195;50.868;4.382;2022-09-01T00:43:42;9.13;;;3.63;;
20069;SDS011;10195;50.868;4.382;2022-09-01T00:46:19;5.55;;;3.35;;
20069;SDS011;10195;50.868;4.382;2022-09-01T00:48:50;5.20;;;3.05;;
20069;SDS011;10195;50.868;4.382;2022-09-01T00:51:19;7.45;;;3.47;;
20069;SDS011;10195;50.868;4.382;2022-09-01T00:53:45;8.95;;;3.33;;
20069;SDS011;10195;50.868;4.382;2022-09-01T00:56:11;8.50;;;3.63;;
20069;SDS011;10195;50.868;4.382;2022-09-01T00:58:38;5.13;;;3.03;;
20069;SDS011;10195;50.868;4.382;2022-09-01T01:01:08;5.72;;;3.30;;
20069;SDS011;10195;50.868;4.382;2022-09-01T01:03:35;10.05;;;3.40;;
20069;SDS011;10195;50.868;4.382;2022-09-01T01:06:02;8.45;;;3.05;;
20069;SDS011;10195;50.868;4.382;2022-09-01T01:08:33;7.30;;;3.40;;
20069;SDS011;10195;50.868;4.382;2022-09-01T01:11:02;10.75;;;3.72;;
20069;SDS011;10195;50.868;4.382;2022-09-01T01:13:53;6.40;;;3.30;;
20069;SDS011;10195;50.868;4.382;2022-09-01T01:16:22;8.55;;;3.60;;
20069;SDS011;10195;50.868;4.382;2022-09-01T01:18:50;9.20;;;3.83;;
20069;SDS011;10195;50.868;4.382;2022-09-01T01:21:28;9.55;;;3.67;;
20069;SDS011;10195;50.868;4.382;2022-09-01T01:24:28;12.30;;;3.50;;
20069;SDS011;10195;50.868;4.382;2022-09-01T01:26:57;6.53;;;3.58;;
20069;SDS011;10195;50.868;4.382;2022-09-01T01:29:24;9.40;;;3.22;;
20069;SDS011;10195;50.868;4.382;2022-09-01T01:31:53;9.00;;;3.22;;
20069;SDS011;10195;50.868;4.382;2022-09-01T01:34:19;9.48;;;3.33;;
20069;SDS011;10195;50.868;4.382;2022-09-01T01:36:46;5.90;;;3.25;;
20069;SDS011;10195;50.868;4.382;2022-09-01T01:39:17;8.57;;;3.63;;
20069;SDS011;10195;50.868;4.382;2022-09-01T01:41:45;8.25;;;3.10;;
20069;SDS011;10195;50.868;4.382;2022-09-01T01:44:13;7.90;;;2.78;;
20069;SDS011;10195;50.868;4.382;2022-09-01T01:46:43;12.13;;;3.17;;
20069;SDS011;10195;50.868;4.382;2022-09-01T01:49:14;6.40;;;2.90;;
20069;SDS011;10195;50.868;4.382;2022-09-01T01:51:44;8.68;;;3.25;;
20069;SDS011;10195;50.868;4.382;2022-09-01T01:54:11;8.93;;;3.00;;
20069;SDS011;10195;50.868;4.382;2022-09-01T01:56:38;8.40;;;3.33;;
20069;SDS011;10195;50.868;4.382;2022-09-01T01:59:06;7.47;;;3.22;;
20069;SDS011;10195;50.868;4.382;2022-09-01T02:01:33;7.93;;;3.15;;
20069;SDS011;10195;50.868;4.382;2022-09-01T02:04:00;7.60;;;3.00;;
20069;SDS011;10195;50.868;4.382;2022-09-01T02:06:27;7.38;;;3.42;;
20069;SDS011;10195;50.868;4.382;2022-09-01T02:08:58;4.82;;;3.03;;
20069;SDS011;10195;50.868;4.382;2022-09-01T02:11:27;7.80;;;3.20;;
20069;SDS011;10195;50.868;4.382;2022-09-01T02:13:58;8.15;;;3.25;;
20069;SDS011;10195;50.868;4.382;2022-09-01T02:16:25;10.45;;;3.50;;
20069;SDS011;10195;50.868;4.382;2022-09-01T02:18:53;7.72;;;3.25;;
20069;SDS011;10195;50.868;4.382;2022-09-01T02:21:20;6.22;;;2.83;;
20069;SDS011;10195;50.868;4.382;2022-09-01T02:23:48;9.23;;;3.13;;
20069;SDS011;10195;50.868;4.382;2022-09-01T02:26:21;6.20;;;2.63;;
20069;SDS011;10195;50.868;4.382;2022-09-01T02:28:47;5.90;;;3.15;;
20069;SDS011;10195;50.868;4.382;2022-09-01T02:31:13;4.60;;;2.88;;
20069;SDS011;10195;50.868;4.382;2022-09-01T02:33:39;5.97;;;2.90;;
20069;SDS011;10195;50.868;4.382;2022-09-01T02:36:11;10.02;;;3.03;;
20069;SDS011;10195;50.868;4.382;2022-09-01T02:38:39;8.27;;;2.92;;
20069;SDS011;10195;50.868;4.382;2022-09-01T02:41:09;11.70;;;3.30;;
20069;SDS011;10195;50.868;4.382;2022-09-01T02:43:38;6.03;;;3.05;;
20069;SDS011;10195;50.868;4.382;2022-09-01T02:46:04;8.60;;;2.80;;
20069;SDS011;10195;50.868;4.382;2022-09-01T02:48:37;8.20;;;2.87;;
20069;SDS011;10195;50.868;4.382;2022-09-01T02:51:06;4.47;;;2.60;;
20069;SDS011;10195;50.868;4.382;2022-09-01T02:53:43;3.80;;;2.60;;
20069;SDS011;10195;50.868;4.382;2022-09-01T02:56:13;7.03;;;2.65;;
20069;SDS011;10195;50.868;4.382;2022-09-01T02:58:41;6.00;;;3.05;;
20069;SDS011;10195;50.868;4.382;2022-09-01T03:01:14;4.40;;;2.45;;
20069;SDS011;10195;50.868;4.382;2022-09-01T03:03:47;5.28;;;3.10;;
20069;SDS011;10195;50.868;4.382;2022-09-01T03:06:13;13.00;;;3.40;;
20069;SDS011;10195;50.868;4.382;2022-09-01T03:08:42;8.38;;;3.38;;
20069;SDS011;10195;50.868;4.382;2022-09-01T03:11:08;9.30;;;3.03;;
20069;SDS011;10195;50.868;4.382;2022-09-01T03:13:35;7.60;;;3.00;;
20069;SDS011;10195;50.868;4.382;2022-09-01T03:16:02;4.75;;;2.90;;
20069;SDS011;10195;50.868;4.382;2022-09-01T03:18:28;9.13;;;3.37;;
20069;SDS011;10195;50.868;4.382;2022-09-01T03:20:54;5.78;;;3.22;;
20069;SDS011;10195;50.868;4.382;2022-09-01T03:23:20;4.60;;;2.70;;
20069;SDS011;10195;50.868;4.382;2022-09-01T03:25:47;8.80;;;3.33;;
20069;SDS011;10195;50.868;4.382;2022-09-01T03:28:13;9.63;;;3.00;;
20069;SDS011;10195;50.868;4.382;2022-09-01T03:30:44;6.40;;;3.20;;
20069;SDS011;10195;50.868;4.382;2022-09-01T03:33:11;11.70;;;4.18;;
20069;SDS011;10195;50.868;4.382;2022-09-01T03:35:37;10.80;;;3.53;;
20069;SDS011;10195;50.868;4.382;2022-09-01T03:38:02;10.35;;;3.75;;
20069;SDS011;10195;50.868;4.382;2022-09-01T03:40:31;9.95;;;3.45;;
20069;SDS011;10195;50.868;4.382;2022-09-01T03:42:59;8.88;;;3.60;;
20069;SDS011;10195;50.868;4.382;2022-09-01T03:45:26;7.50;;;3.78;;
20069;SDS011;10195;50.868;4.382;2022-09-01T03:47:53;10.05;;;3.83;;
20069;SDS011;10195;50.868;4.382;2022-09-01T03:50:20;9.65;;;4.18;;
20069;SDS011;10195;50.868;4.382;2022-09-01T03:52:48;12.38;;;3.92;;
20069;SDS011;10195;50.868;4.382;2022-09-01T03:55:16;11.85;;;3.17;;
20069;SDS011;10195;50.868;4.382;2022-09-01T03:57:48;11.68;;;3.53;;
20069;SDS011;10195;50.868;4.382;2022-09-01T04:00:14;7.87;;;4.00;;
20069;SDS011;10195;50.868;4.382;2022-09-01T04:02:48;8.10;;;5.10;;
20069;SDS011;10195;50.868;4.382;2022-09-01T04:05:18;9.85;;;4.82;;
20069;SDS011;10195;50.868;4.382;2022-09-01T04:07:47;13.93;;;5.17;;
20069;SDS011;10195;50.868;4.382;2022-09-01T04:10:15;10.65;;;5.25;;
20069;SDS011;10195;50.868;4.382;2022-09-01T04:12:42;11.52;;;5.03;;
20069;SDS011;10195;50.868;4.382;2022-09-01T04:15:09;12.57;;;5.45;;
20069;SDS011;10195;50.868;4.382;2022-09-01T04:17:35;13.15;;;5.80;;
20069;SDS011;10195;50.868;4.382;2022-09-01T04:20:19;12.32;;;5.85;;
20069;SDS011;10195;50.868;4.382;2022-09-01T04:22:46;8.57;;;5.28;;
20069;SDS011;10195;50.868;4.382;2022-09-01T04:25:13;9.93;;;4.53;;
20069;SDS011;10195;50.868;4.382;2022-09-01T04:27:40;10.10;;;4.35;;
20069;SDS011;10195;50.868;4.382;2022-09-01T04:30:06;6.10;;;3.73;;
20069;SDS011;10195;50.868;4.382;2022-09-01T04:32:35;16.10;;;4.15;;
20069;SDS011;10195;50.868;4.382;2022-09-01T04:35:05;10.17;;;4.23;;
20069;SDS011;10195;50.868;4.382;2022-09-01T04:37:31;10.50;;;4.17;;
20069;SDS011;10195;50.868;4.382;2022-09-01T04:40:00;8.35;;;4.38;;
20069;SDS011;10195;50.868;4.382;2022-09-01T04:42:27;10.05;;;4.65;;
20069;SDS011;10195;50.868;4.382;2022-09-01T04:44:56;14.00;;;4.40;;
20069;SDS011;10195;50.868;4.382;2022-09-01T04:47:24;11.65;;;5.13;;
20069;SDS011;10195;50.868;4.382;2022-09-01T04:49:56;16.92;;;5.70;;
20069;SDS011;10195;50.868;4.382;2022-09-01T04:52:24;10.00;;;4.47;;
20069;SDS011;10195;50.868;4.382;2022-09-01T04:54:50;11.13;;;4.95;;
20069;SDS011;10195;50.868;4.382;2022-09-01T04:57:16;9.07;;;5.03;;
20069;SDS011;10195;50.868;4.382;2022-09-01T04:59:42;9.32;;;4.43;;
20069;SDS011;10195;50.868;4.382;2022-09-01T05:02:08;18.77;;;5.00;;
20069;SDS011;10195;50.868;4.382;2022-09-01T05:04:34;9.77;;;4.60;;
20069;SDS011;10195;50.868;4.382;2022-09-01T05:07:01;16.73;;;5.20;;
20069;SDS011;10195;50.868;4.382;2022-09-01T05:09:29;9.30;;;4.68;;
20069;SDS011;10195;50.868;4.382;2022-09-01T05:11:59;8.53;;;4.97;;
20069;SDS011;10195;50.868;4.382;2022-09-01T05:14:35;12.47;;;5.00;;
20069;SDS011;10195;50.868;4.382;2022-09-01T05:17:06;14.65;;;5.78;;
20069;SDS011;10195;50.868;4.382;2022-09-01T05:19:34;18.77;;;6.00;;
20069;SDS011;10195;50.868;4.382;2022-09-01T05:22:11;11.55;;;5.40;;
20069;SDS011;10195;50.868;4.382;2022-09-01T05:24:38;14.30;;;6.57;;
20069;SDS011;10195;50.868;4.382;2022-09-01T05:27:04;14.57;;;5.30;;
20069;SDS011;10195;50.868;4.382;2022-09-01T05:29:31;19.05;;;5.78;;
20069;SDS011;10195;50.868;4.382;2022-09-01T05:31:56;9.50;;;5.20;;
20069;SDS011;10195;50.868;4.382;2022-09-01T05:34:23;12.05;;;4.70;;
20069;SDS011;10195;50.868;4.382;2022-09-01T05:36:54;10.50;;;5.20;;
20069;SDS011;10195;50.868;4.382;2022-09-01T05:39:23;11.57;;;5.57;;
20069;SDS011;10195;50.868;4.382;2022-09-01T05:41:50;15.02;;;5.55;;
20069;SDS011;10195;50.868;4.382;2022-09-01T05:44:16;16.42;;;5.75;;
20069;SDS011;10195;50.868;4.382;2022-09-01T05:46:42;15.00;;;5.38;;
20069;SDS011;10195;50.868;4.382;2022-09-01T05:49:09;12.13;;;5.53;;
20069;SDS011;10195;50.868;4.382;2022-09-01T05:51:40;12.13;;;6.33;;
20069;SDS011;10195;50.868;4.382;2022-09-01T05:54:08;12.30;;;4.93;;
20069;SDS011;10195;50.868;4.382;2022-09-01T05:56:34;16.13;;;5.43;;
20069;SDS011;10195;50.868;4.382;2022-09-01T05:59:04;10.10;;;5.20;;
20069;SDS011;10195;50.868;4.382;2022-09-01T06:01:30;10.43;;;5.23;;
20069;SDS011;10195;50.868;4.382;2022-09-01T06:03:57;16.03;;;5.37;;
20069;SDS011;10195;50.868;4.382;2022-09-01T06:06:29;9.18;;;5.07;;
20069;SDS011;10195;50.868;4.382;2022-09-01T06:09:02;11.02;;;5.40;;
20069;SDS011;10195;50.868;4.382;2022-09-01T06:11:29;13.77;;;5.90;;
20069;SDS011;10195;50.868;4.382;2022-09-01T06:13:57;17.45;;;5.85;;
20069;SDS011;10195;50.868;4.382;2022-09-01T06:16:27;17.17;;;5.55;;
20069;SDS011;10195;50.868;4.382;2022-09-01T06:18:55;12.75;;;5.07;;
20069;SDS011;10195;50.868;4.382;2022-09-01T06:21:22;20.80;;;6.50;;
20069;SDS011;10195;50.868;4.382;2022-09-01T06:23:49;28.27;;;6.20;;
20069;SDS011;10195;50.868;4.382;2022-09-01T06:26:19;10.57;;;5.57;;
20069;SDS011;10195;50.868;4.382;2022-09-01T06:28:47;15.05;;;6.05;;
20069;SDS011;10195;50.868;4.382;2022-09-01T06:31:25;13.02;;;5.30;;
20069;SDS011;10195;50.868;4.382;2022-09-01T06:33:54;9.30;;;5.22;;
20069;SDS011;10195;50.868;4.382;2022-09-01T06:36:20;14.50;;;5.53;;
20069;SDS011;10195;50.868;4.382;2022-09-01T06:38:48;8.18;;;5.03;;
20069;SDS011;10195;50.868;4.382;2022-09-01T06:41:15;10.13;;;5.00;;
20069;SDS011;10195;50.868;4.382;2022-09-01T06:43:43;13.68;;;4.85;;
20069;SDS011;10195;50.868;4.382;2022-09-01T06:46:14;13.18;;;5.00;;
20069;SDS011;10195;50.868;4.382;2022-09-01T06:48:41;12.27;;;5.07;;
20069;SDS011;10195;50.868;4.382;2022-09-01T06:51:10;10.77;;;4.60;;
20069;SDS011;10195;50.868;4.382;2022-09-01T06:53:38;11.48;;;4.47;;
20069;SDS011;10195;50.868;4.382;2022-09-01T06:56:05;13.23;;;4.53;;
20069;SDS011;10195;50.868;4.382;2022-09-01T06:58:33;16.42;;;5.00;;
20069;SDS011;10195;50.868;4.382;2022-09-01T07:01:03;17.70;;;5.43;;
20069;SDS011;10195;50.868;4.382;2022-09-01T07:03:38;8.85;;;4.97;;
20069;SDS011;10195;50.868;4.382;2022-09-01T07:06:04;24.58;;;5.40;;
20069;SDS011;10195;50.868;4.382;2022-09-01T07:08:31;11.55;;;5.03;;
20069;SDS011;10195;50.868;4.382;2022-09-01T07:10:57;22.30;;;5.80;;
20069;SDS011;10195;50.868;4.382;2022-09-01T07:13:23;12.75;;;5.18;;
20069;SDS011;10195;50.868;4.382;2022-09-01T07:15:53;12.85;;;5.03;;
20069;SDS011;10195;50.868;4.382;2022-09-01T07:18:24;8.65;;;4.85;;
20069;SDS011;10195;50.868;4.382;2022-09-01T07:20:51;6.88;;;4.40;;
20069;SDS011;10195;50.868;4.382;2022-09-01T07:23:17;11.75;;;4.68;;
20069;SDS011;10195;50.868;4.382;2022-09-01T07:25:45;12.30;;;5.10;;
20069;SDS011;10195;50.868;4.382;2022-09-01T07:28:13;11.63;;;5.30;;
20069;SDS011;10195;50.868;4.382;2022-09-01T07:30:48;12.57;;;5.07;;
20069;SDS011;10195;50.868;4.382;2022-09-01T07:33:17;16.27;;;4.68;;
20069;SDS011;10195;50.868;4.382;2022-09-01T07:35:47;13.80;;;4.35;;
20069;SDS011;10195;50.868;4.382;2022-09-01T07:38:13;14.73;;;5.03;;
20069;SDS011;10195;50.868;4.382;2022-09-01T07:40:40;12.68;;;4.72;;
20069;SDS011;10195;50.868;4.382;2022-09-01T07:43:08;15.15;;;4.85;;
20069;SDS011;10195;50.868;4.382;2022-09-01T07:45:42;11.07;;;4.30;;
20069;SDS011;10195;50.868;4.382;2022-09-01T07:48:11;12.15;;;4.90;;
20069;SDS011;10195;50.868;4.382;2022-09-01T07:50:40;17.48;;;4.65;;
20069;SDS011;10195;50.868;4.382;2022-09-01T07:53:11;9.18;;;4.30;;
20069;SDS011;10195;50.868;4.382;2022-09-01T07:55:46;15.32;;;4.55;;
20069;SDS011;10195;50.868;4.382;2022-09-01T07:58:17;15.85;;;4.13;;
20069;SDS011;10195;50.868;4.382;2022-09-01T08:00:47;7.90;;;3.88;;
20069;SDS011;10195;50.868;4.382;2022-09-01T08:03:14;12.77;;;4.13;;
20069;SDS011;10195;50.868;4.382;2022-09-01T08:05:42;20.02;;;4.25;;
20069;SDS011;10195;50.868;4.382;2022-09-01T08:08:08;10.10;;;4.07;;
20069;SDS011;10195;50.868;4.382;2022-09-01T08:10:37;23.83;;;4.22;;
20069;SDS011;10195;50.868;4.382;2022-09-01T08:13:04;12.30;;;3.85;;
20069;SDS011;10195;50.868;4.382;2022-09-01T08:15:31;14.60;;;3.80;;
20069;SDS011;10195;50.868;4.382;2022-09-01T08:17:56;9.90;;;3.85;;
20069;SDS011;10195;50.868;4.382;2022-09-01T08:20:22;14.20;;;4.38;;
20069;SDS011;10195;50.868;4.382;2022-09-01T08:22:48;6.85;;;3.60;;
20069;SDS011;10195;50.868;4.382;2022-09-01T08:25:13;12.80;;;3.75;;
20069;SDS011;10195;50.868;4.382;2022-09-01T08:27:40;7.80;;;3.45;;
20069;SDS011;10195;50.868;4.382;2022-09-01T08:30:07;21.17;;;3.92;;
20069;SDS011;10195;50.868;4.382;2022-09-01T08:32:36;4.95;;;3.13;;
20069;SDS011;10195;50.868;4.382;2022-09-01T08:35:06;8.45;;;3.45;;
20069;SDS011;10195;50.868;4.382;2022-09-01T08:37:33;7.93;;;3.45;;
20069;SDS011;10195;50.868;4.382;2022-09-01T08:39:59;9.23;;;2.92;;
20069;SDS011;10195;50.868;4.382;2022-09-01T08:47:28;8.85;;;2.65;;
20069;SDS011;10195;50.868;4.382;2022-09-01T08:49:55;12.57;;;3.13;;
20069;SDS011;10195;50.868;4.382;2022-09-01T08:52:27;5.85;;;2.58;;
20069;SDS011;10195;50.868;4.382;2022-09-01T09:00:00;7.53;;;2.60;;
20069;SDS011;10195;50.868;4.382;2022-09-01T09:02:36;8.10;;;2.40;;
20069;SDS011;10195;50.868;4.382;2022-09-01T09:08:19;7.10;;;2.40;;
20069;SDS011;10195;50.868;4.382;2022-09-01T09:11:03;8.32;;;2.22;;
20069;SDS011;10195;50.868;4.382;2022-09-01T09:16:22;6.85;;;2.10;;
20069;SDS011;10195;50.868;4.382;2022-09-01T09:19:02;17.08;;;2.58;;
20069;SDS011;10195;50.868;4.382;2022-09-01T09:21:43;11.52;;;2.40;;
20069;SDS011;10195;50.868;4.382;2022-09-01T09:26:48;9.23;;;2.20;;
20069;SDS011;10195;50.868;4.382;2022-09-01T09:29:19;5.65;;;2.05;;
20069;SDS011;10195;50.868;4.382;2022-09-01T09:31:46;6.70;;;2.05;;
20069;SDS011;10195;50.868;4.382;2022-09-01T09:42:34;5.10;;;1.83;;
20069;SDS011;10195;50.868;4.382;2022-09-01T09:45:03;8.32;;;2.20;;
20069;SDS011;10195;50.868;4.382;2022-09-01T09:47:50;5.05;;;2.10;;
20069;SDS011;10195;50.868;4.382;2022-09-01T09:52:52;3.13;;;1.77;;
20069;SDS011;10195;50.868;4.382;2022-09-01T09:55:34;10.63;;;2.00;;
20069;SDS011;10195;50.868;4.382;2022-09-01T09:58:00;7.68;;;2.25;;
20069;SDS011;10195;50.868;4.382;2022-09-01T10:00:35;4.95;;;1.23;;
20069;SDS011;10195;50.868;4.382;2022-09-01T10:03:06;9.18;;;2.25;;
20069;SDS011;10195;50.868;4.382;2022-09-01T10:05:44;11.77;;;1.70;;
20069;SDS011;10195;50.868;4.382;2022-09-01T10:10:58;6.35;;;1.50;;
20069;SDS011;10195;50.868;4.382;2022-09-01T10:13:25;2.80;;;1.40;;
20069;SDS011;10195;50.868;4.382;2022-09-01T10:15:55;4.03;;;1.50;;
20069;SDS011;10195;50.868;4.382;2022-09-01T10:18:28;6.47;;;1.70;;
20069;SDS011;10195;50.868;4.382;2022-09-01T10:21:00;5.85;;;1.60;;
20069;SDS011;10195;50.868;4.382;2022-09-01T10:23:32;6.13;;;1.90;;
20069;SDS011;10195;50.868;4.382;2022-09-01T10:29:19;4.60;;;1.58;;
20069;SDS011;10195;50.868;4.382;2022-09-01T10:31:53;3.40;;;1.35;;
20069;SDS011;10195;50.868;4.382;2022-09-01T10:34:20;3.50;;;1.70;;
20069;SDS011;10195;50.868;4.382;2022-09-01T10:36:47;4.45;;;1.65;;
20069;SDS011;10195;50.868;4.382;2022-09-01T10:39:15;2.47;;;1.52;;
20069;SDS011;10195;50.868;4.382;2022-09-01T10:41:46;2.42;;;1.40;;
20069;SDS011;10195;50.868;4.382;2022-09-01T10:44:28;2.53;;;1.42;;
20069;SDS011;10195;50.868;4.382;2022-09-01T10:47:01;4.93;;;1.80;;
20069;SDS011;10195;50.868;4.382;2022-09-01T10:51:59;3.38;;;1.52;;
20069;SDS011;10195;50.868;4.382;2022-09-01T10:57:07;7.32;;;1.70;;
20069;SDS011;10195;50.868;4.382;2022-09-01T10:59:36;5.15;;;1.30;;
20069;SDS011;10195;50.868;4.382;2022-09-01T11:17:58;6.68;;;1.50;;
20069;SDS011;10195;50.868;4.382;2022-09-01T11:23:21;3.95;;;2.00;;
20069;SDS011;10195;50.868;4.382;2022-09-01T11:33:41;5.32;;;1.50;;
20069;SDS011;10195;50.868;4.382;2022-09-01T11:36:35;3.40;;;1.48;;
20069;SDS011;10195;50.868;4.382;2022-09-01T11:44:23;3.08;;;1.58;;
20069;SDS011;10195;50.868;4.382;2022-09-01T11:47:10;4.18;;;2.03;;
20069;SDS011;10195;50.868;4.382;2022-09-01T11:52:27;3.10;;;1.88;;
20069;SDS011;10195;50.868;4.382;2022-09-01T11:54:55;5.03;;;1.83;;
20069;SDS011;10195;50.868;4.382;2022-09-01T11:57:32;6.72;;;1.73;;
20069;SDS011;10195;50.868;4.382;2022-09-01T12:00:00;5.97;;;1.73;;
20069;SDS011;10195;50.868;4.382;2022-09-01T12:02:34;10.10;;;1.50;;
20069;SDS011;10195;50.868;4.382;2022-09-01T12:05:21;6.28;;;1.60;;
20069;SDS011;10195;50.868;4.382;2022-09-01T12:07:51;5.30;;;1.80;;
20069;SDS011;10195;50.868;4.382;2022-09-01T12:10:27;6.75;;;1.70;;
20069;SDS011;10195;50.868;4.382;2022-09-01T12:15:30;4.03;;;1.92;;
20069;SDS011;10195;50.868;4.382;2022-09-01T12:20:46;5.55;;;1.70;;
20069;SDS011;10195;50.868;4.382;2022-09-01T12:23:26;2.50;;;1.63;;
20069;SDS011;10195;50.868;4.382;2022-09-01T12:25:53;11.50;;;2.08;;
20069;SDS011;10195;50.868;4.382;2022-09-01T12:28:23;2.35;;;1.60;;
20069;SDS011;10195;50.868;4.382;2022-09-01T12:30:51;7.13;;;1.70;;
20069;SDS011;10195;50.868;4.382;2022-09-01T12:33:19;3.35;;;1.60;;
20069;SDS011;10195;50.868;4.382;2022-09-01T12:35:45;5.50;;;1.98;;
20069;SDS011;10195;50.868;4.382;2022-09-01T12:40:43;5.43;;;1.33;;
20069;SDS011;10195;50.868;4.382;2022-09-01T12:43:33;3.13;;;1.75;;
20069;SDS011;10195;50.868;4.382;2022-09-01T12:46:00;5.88;;;1.70;;
20069;SDS011;10195;50.868;4.382;2022-09-01T12:51:18;4.68;;;1.90;;
20069;SDS011;10195;50.868;4.382;2022-09-01T12:53:54;8.93;;;2.00;;
20069;SDS011;10195;50.868;4.382;2022-09-01T12:56:28;1.90;;;1.70;;
20069;SDS011;10195;50.868;4.382;2022-09-01T12:59:03;3.20;;;1.35;;
20069;SDS011;10195;50.868;4.382;2022-09-01T13:01:36;4.05;;;1.50;;
20069;SDS011;10195;50.868;4.382;2022-09-01T13:06:53;6.47;;;1.75;;
20069;SDS011;10195;50.868;4.382;2022-09-01T13:09:24;6.05;;;1.75;;
20069;SDS011;10195;50.868;4.382;2022-09-01T13:11:49;3.88;;;1.80;;
20069;SDS011;10195;50.868;4.382;2022-09-01T13:14:15;3.90;;;1.75;;
20069;SDS011;10195;50.868;4.382;2022-09-01T13:16:42;3.17;;;1.75;;
20069;SDS011;10195;50.868;4.382;2022-09-01T13:19:08;7.30;;;2.00;;
20069;SDS011;10195;50.868;4.382;2022-09-01T13:21:34;4.10;;;1.50;;
20069;SDS011;10195;50.868;4.382;2022-09-01T13:24:00;5.72;;;1.58;;
20069;SDS011;10195;50.868;4.382;2022-09-01T13:26:30;6.25;;;1.83;;
20069;SDS011;10195;50.868;4.382;2022-09-01T13:28:57;4.45;;;1.70;;
20069;SDS011;10195;50.868;4.382;2022-09-01T13:31:23;2.00;;;1.73;;
20069;SDS011;10195;50.868;4.382;2022-09-01T13:33:49;2.40;;;1.55;;
20069;SDS011;10195;50.868;4.382;2022-09-01T13:36:15;5.13;;;1.65;;
20069;SDS011;10195;50.868;4.382;2022-09-01T13:38:41;5.47;;;1.85;;
20069;SDS011;10195;50.868;4.382;2022-09-01T13:41:06;4.10;;;1.92;;
20069;SDS011;10195;50.868;4.382;2022-09-01T13:43:35;7.47;;;1.83;;
20069;SDS011;10195;50.868;4.382;2022-09-01T13:46:01;6.80;;;1.77;;
20069;SDS011;10195;50.868;4.382;2022-09-01T13:48:26;6.15;;;1.73;;
20069;SDS011;10195;50.868;4.382;2022-09-01T13:50:53;3.53;;;1.65;;
20069;SDS011;10195;50.868;4.382;2022-09-01T13:53:19;2.83;;;1.52;;
20069;SDS011;10195;50.868;4.382;2022-09-01T13:55:46;5.15;;;1.52;;
20069;SDS011;10195;50.868;4.382;2022-09-01T13:58:13;3.30;;;1.70;;
20069;SDS011;10195;50.868;4.382;2022-09-01T14:00:44;4.13;;;1.65;;
20069;SDS011;10195;50.868;4.382;2022-09-01T14:03:15;3.00;;;1.90;;
20069;SDS011;10195;50.868;4.382;2022-09-01T14:05:44;7.78;;;1.90;;
20069;SDS011;10195;50.868;4.382;2022-09-01T14:08:12;7.25;;;1.88;;
20069;SDS011;10195;50.868;4.382;2022-09-01T14:10:39;2.38;;;2.00;;
20069;SDS011;10195;50.868;4.382;2022-09-01T14:13:08;9.07;;;1.80;;
20069;SDS011;10195;50.868;4.382;2022-09-01T14:15:34;4.20;;;1.88;;
20069;SDS011;10195;50.868;4.382;2022-09-01T14:18:01;2.67;;;1.40;;
20069;SDS011;10195;50.868;4.382;2022-09-01T14:20:29;6.28;;;1.70;;
20069;SDS011;10195;50.868;4.382;2022-09-01T14:22:59;3.05;;;1.40;;
20069;SDS011;10195;50.868;4.382;2022-09-01T14:25:25;7.95;;;1.70;;
20069;SDS011;10195;50.868;4.382;2022-09-01T14:27:50;2.42;;;1.45;;
20069;SDS011;10195;50.868;4.382;2022-09-01T14:30:24;2.53;;;1.52;;
20069;SDS011;10195;50.868;4.382;2022-09-01T14:32:52;3.38;;;1.60;;
20069;SDS011;10195;50.868;4.382;2022-09-01T14:35:19;3.85;;;1.77;;
20069;SDS011;10195;50.868;4.382;2022-09-01T14:37:48;2.88;;;1.80;;
20069;SDS011;10195;50.868;4.382;2022-09-01T14:40:16;3.47;;;1.70;;
20069;SDS011;10195;50.868;4.382;2022-09-01T14:42:43;4.88;;;1.77;;
20069;SDS011;10195;50.868;4.382;2022-09-01T14:45:13;5.05;;;1.75;;
20069;SDS011;10195;50.868;4.382;2022-09-01T14:47:42;4.03;;;1.80;;
20069;SDS011;10195;50.868;4.382;2022-09-01T14:50:08;4.72;;;1.50;;
20069;SDS011;10195;50.868;4.382;2022-09-01T14:52:35;2.25;;;1.52;;
20069;SDS011;10195;50.868;4.382;2022-09-01T14:55:02;3.97;;;1.75;;
20069;SDS011;10195;50.868;4.382;2022-09-01T14:57:28;4.10;;;1.65;;
20069;SDS011;10195;50.868;4.382;2022-09-01T14:59:56;4.78;;;1.30;;
20069;SDS011;10195;50.868;4.382;2022-09-01T15:02:21;2.85;;;1.63;;
20069;SDS011;10195;50.868;4.382;2022-09-01T15:04:49;8.55;;;1.92;;
20069;SDS011;10195;50.868;4.382;2022-09-01T15:07:15;3.72;;;1.60;;
20069;SDS011;10195;50.868;4.382;2022-09-01T15:09:41;2.17;;;1.40;;
20069;SDS011;10195;50.868;4.382;2022-09-01T15:12:06;2.65;;;1.60;;
20069;SDS011;10195;50.868;4.382;2022-09-01T15:14:33;4.28;;;1.50;;
20069;SDS011;10195;50.868;4.382;2022-09-01T15:16:59;3.22;;;1.55;;
20069;SDS011;10195;50.868;4.382;2022-09-01T15:19:25;3.00;;;1.60;;
20069;SDS011;10195;50.868;4.382;2022-09-01T15:21:51;7.13;;;1.50;;
20069;SDS011;10195;50.868;4.382;2022-09-01T15:24:16;5.57;;;1.80;;
20069;SDS011;10195;50.868;4.382;2022-09-01T15:26:42;5.57;;;1.42;;
20069;SDS011;10195;50.868;4.382;2022-09-01T15:29:10;4.05;;;1.58;;
20069;SDS011;10195;50.868;4.382;2022-09-01T15:31:39;4.53;;;1.42;;
20069;SDS011;10195;50.868;4.382;2022-09-01T15:34:05;3.95;;;1.55;;
20069;SDS011;10195;50.868;4.382;2022-09-01T15:36:33;4.40;;;1.30;;
20069;SDS011;10195;50.868;4.382;2022-09-01T15:39:00;4.35;;;1.30;;
20069;SDS011;10195;50.868;4.382;2022-09-01T15:41:27;9.38;;;1.60;;
20069;SDS011;10195;50.868;4.382;2022-09-01T15:43:55;3.30;;;1.30;;
20069;SDS011;10195;50.868;4.382;2022-09-01T15:46:21;2.05;;;1.35;;
20069;SDS011;10195;50.868;4.382;2022-09-01T15:48:47;1.30;;;1.20;;
20069;SDS011;10195;50.868;4.382;2022-09-01T15:53:46;4.38;;;1.55;;
20069;SDS011;10195;50.868;4.382;2022-09-01T15:56:14;2.60;;;1.40;;
20069;SDS011;10195;50.868;4.382;2022-09-01T15:58:42;3.05;;;1.40;;
20069;SDS011;10195;50.868;4.382;2022-09-01T16:01:08;5.47;;;1.40;;
20069;SDS011;10195;50.868;4.382;2022-09-01T16:03:33;6.15;;;1.55;;
20069;SDS011;10195;50.868;4.382;2022-09-01T16:05:59;8.82;;;2.00;;
20069;SDS011;10195;50.868;4.382;2022-09-01T16:08:25;4.32;;;1.48;;
20069;SDS011;10195;50.868;4.382;2022-09-01T16:10:52;4.60;;;1.30;;
20069;SDS011;10195;50.868;4.382;2022-09-01T16:13:18;2.83;;;1.52;;
20069;SDS011;10195;50.868;4.382;2022-09-01T16:15:48;3.20;;;1.40;;
20069;SDS011;10195;50.868;4.382;2022-09-01T16:18:25;3.55;;;1.38;;
20069;SDS011;10195;50.868;4.382;2022-09-01T16:21:02;3.30;;;1.30;;
20069;SDS011;10195;50.868;4.382;2022-09-01T16:23:44;2.72;;;1.27;;
20069;SDS011;10195;50.868;4.382;2022-09-01T16:26:13;2.80;;;1.33;;